Tokuyo Maru No.15 — JD2184 — position and weather

sailwx.info

Track history (hours):
 
Tides and Currents Weather Stations Pressure Air Temp Water Temp Dewpoint Dewpoint Depression Visibility Wind Speed Wind Dir Waves Ship Positions

Tokuyo Maru No.15

Last reported at 2017-Jan-17 06:28 UTC. Time now 2017-Jan-22 20:23 UTC.
Position N 35°06' E 139°45'.

Length 66 m; draft 4.5 m.

Type: Tanker. MMSI: 431402034.

Date/timePositionNaut miles runAvg speedWind from/ knotsBaromVisibWave heightAir tempDewpointWater temp
2017-Jan-17 06:28N 35°06' E 139°45'1111.8
2017-Jan-17 05:33N 35°16' E 139°45'1010.0
2017-Jan-17 04:33N 35°26' E 139°46'13 2.5
2017-Jan-16 23:29N 35°31' E 140°01'4 4.3
2017-Jan-16 22:28N 35°29' E 139°56'0 0.0
2017-Jan-16 21:31N 35°29' E 139°56'0 0.0
2017-Jan-16 20:31N 35°29' E 139°56'0 0.0
2017-Jan-16 19:31N 35°29' E 139°56'0 0.0
2017-Jan-16 18:31N 35°29' E 139°56'0 0.0
2017-Jan-16 17:28N 35°29' E 139°56'0 0.0
2017-Jan-16 16:31N 35°29' E 139°56'0 0.0
2017-Jan-16 15:31N 35°29' E 139°56'0 0.0
2017-Jan-16 14:31N 35°29' E 139°56'8 8.6
2017-Jan-16 13:33N 35°25' E 139°47'10 9.6
2017-Jan-16 12:33N 35°15' E 139°47'8 0.3
2017-Jan-15 11:32N 35°07' E 139°45'1111.5
2017-Jan-15 10:34N 35°18' E 139°44'1010.3
2017-Jan-15 09:34N 35°28' E 139°49'10 1.6
2017-Jan-15 03:18N 35°31' E 140°00'4 5.4
2017-Jan-15 02:31N 35°29' E 139°56'0 0.0
2017-Jan-15 01:31N 35°29' E 139°56'0 0.0
2017-Jan-15 00:28N 35°29' E 139°56'0 0.0
2017-Jan-14 23:33N 35°29' E 139°56'0 0.0
2017-Jan-14 22:33N 35°29' E 139°56'0 0.0
2017-Jan-14 21:31N 35°29' E 139°56'0 0.0
2017-Jan-14 20:31N 35°29' E 139°56'0 0.0
2017-Jan-14 19:07N 35°29' E 139°56'0 0.0
2017-Jan-14 18:31N 35°29' E 139°56'0 0.1
2017-Jan-14 17:31N 35°29' E 139°56'8 8.2
2017-Jan-14 16:33N 35°25' E 139°47'1010.1
2017-Jan-14 15:33N 35°15' E 139°47'6 0.2
2017-Jan-13 08:33N 35°09' E 139°46'1010.3
2017-Jan-13 07:33N 35°19' E 139°43'9 9.4
2017-Jan-13 06:33N 35°28' E 139°48'1110.4
2017-Jan-13 05:27N 35°31' E 140°01'1 0.2
2017-Jan-12 23:14N 35°31' E 140°00'710.3
2017-Jan-12 22:33N 35°29' E 139°52'1110.8
2017-Jan-12 21:33N 35°20' E 139°44'14 0.4
2017-Jan-11 06:33N 35°06' E 139°45'1111.0
2017-Jan-11 05:34N 35°17' E 139°45'10 9.5
2017-Jan-11 04:34N 35°26' E 139°46'1211.6
2017-Jan-11 03:30N 35°31' E 140°00'0 0.0
2017-Jan-10 23:33N 35°31' E 140°01'5 4.3
2017-Jan-10 22:28N 35°29' E 139°56'0 0.1
2017-Jan-10 21:31N 35°29' E 139°56'0 0.0
2017-Jan-10 20:31N 35°29' E 139°56'0 0.0
2017-Jan-10 19:31N 35°29' E 139°56'0 0.0
2017-Jan-10 18:31N 35°29' E 139°56'0 0.0
2017-Jan-10 17:31N 35°29' E 139°56'0 0.0
2017-Jan-10 16:31N 35°29' E 139°56'0 0.0
2017-Jan-10 15:31N 35°29' E 139°56'0 0.0
2017-Jan-10 14:31N 35°29' E 139°56'0 0.0
2017-Jan-10 13:31N 35°29' E 139°56'0 0.1
2017-Jan-10 12:27N 35°29' E 139°56'910.2
2017-Jan-10 11:34N 35°24' E 139°46'1110.5
2017-Jan-10 10:29N 35°13' E 139°47'  
Track history (hours):
 
Tides and Currents Weather Stations Pressure Air Temp Water Temp Dewpoint Dewpoint Depression Visibility Wind Speed Wind Dir Waves Ship Positions

Tokuyo Maru No.15

Last reported at 2017-Jan-17 06:28 UTC. Time now 2017-Jan-22 20:23 UTC.
Position N 35°06' E 139°45'.

Length 66 m; draft 4.5 m.

Type: Tanker. MMSI: 431402034.

Date/timePositionNaut miles runAvg speedWind from/ knotsBaromVisibWave heightAir tempDewpointWater temp
2017-Jan-17 06:28N 35°06' E 139°45'1111.8
2017-Jan-17 05:33N 35°16' E 139°45'1010.0
2017-Jan-17 04:33N 35°26' E 139°46'13 2.5
2017-Jan-16 23:29N 35°31' E 140°01'4 4.3
2017-Jan-16 22:28N 35°29' E 139°56'0 0.0
2017-Jan-16 21:31N 35°29' E 139°56'0 0.0
2017-Jan-16 20:31N 35°29' E 139°56'0 0.0
2017-Jan-16 19:31N 35°29' E 139°56'0 0.0
2017-Jan-16 18:31N 35°29' E 139°56'0 0.0
2017-Jan-16 17:28N 35°29' E 139°56'0 0.0
2017-Jan-16 16:31N 35°29' E 139°56'0 0.0
2017-Jan-16 15:31N 35°29' E 139°56'0 0.0
2017-Jan-16 14:31N 35°29' E 139°56'8 8.6
2017-Jan-16 13:33N 35°25' E 139°47'10 9.6
2017-Jan-16 12:33N 35°15' E 139°47'8 0.3
2017-Jan-15 11:32N 35°07' E 139°45'1111.5
2017-Jan-15 10:34N 35°18' E 139°44'1010.3
2017-Jan-15 09:34N 35°28' E 139°49'10 1.6
2017-Jan-15 03:18N 35°31' E 140°00'4 5.4
2017-Jan-15 02:31N 35°29' E 139°56'0 0.0
2017-Jan-15 01:31N 35°29' E 139°56'0 0.0
2017-Jan-15 00:28N 35°29' E 139°56'0 0.0
2017-Jan-14 23:33N 35°29' E 139°56'0 0.0
2017-Jan-14 22:33N 35°29' E 139°56'0 0.0
2017-Jan-14 21:31N 35°29' E 139°56'0 0.0
2017-Jan-14 20:31N 35°29' E 139°56'0 0.0
2017-Jan-14 19:07N 35°29' E 139°56'0 0.0
2017-Jan-14 18:31N 35°29' E 139°56'0 0.1
2017-Jan-14 17:31N 35°29' E 139°56'8 8.2
2017-Jan-14 16:33N 35°25' E 139°47'1010.1
2017-Jan-14 15:33N 35°15' E 139°47'6 0.2
2017-Jan-13 08:33N 35°09' E 139°46'1010.3
2017-Jan-13 07:33N 35°19' E 139°43'9 9.4
2017-Jan-13 06:33N 35°28' E 139°48'1110.4
2017-Jan-13 05:27N 35°31' E 140°01'1 0.2
2017-Jan-12 23:14N 35°31' E 140°00'710.3
2017-Jan-12 22:33N 35°29' E 139°52'1110.8
2017-Jan-12 21:33N 35°20' E 139°44'14 0.4
2017-Jan-11 06:33N 35°06' E 139°45'1111.0
2017-Jan-11 05:34N 35°17' E 139°45'10 9.5
2017-Jan-11 04:34N 35°26' E 139°46'1211.6
2017-Jan-11 03:30N 35°31' E 140°00'0 0.0
2017-Jan-10 23:33N 35°31' E 140°01'5 4.3
2017-Jan-10 22:28N 35°29' E 139°56'0 0.1
2017-Jan-10 21:31N 35°29' E 139°56'0 0.0
2017-Jan-10 20:31N 35°29' E 139°56'0 0.0
2017-Jan-10 19:31N 35°29' E 139°56'0 0.0
2017-Jan-10 18:31N 35°29' E 139°56'0 0.0
2017-Jan-10 17:31N 35°29' E 139°56'0 0.0
2017-Jan-10 16:31N 35°29' E 139°56'0 0.0
2017-Jan-10 15:31N 35°29' E 139°56'0 0.0
2017-Jan-10 14:31N 35°29' E 139°56'0 0.0
2017-Jan-10 13:31N 35°29' E 139°56'0 0.1
2017-Jan-10 12:27N 35°29' E 139°56'910.2
2017-Jan-10 11:34N 35°24' E 139°46'1110.5
2017-Jan-10 10:29N 35°13' E 139°47'  

Dump ship's entire track history